createdAt,value
2023-05-18T00:01:45.350Z,99824.41
2023-05-18T00:04:34.877Z,99806.50
2023-05-18T00:07:23.106Z,99810.06
2023-05-18T00:10:11.985Z,99839.88
2023-05-18T00:12:59.930Z,99829.91
2023-05-18T00:15:47.846Z,99812.41
2023-05-18T00:18:37.922Z,99839.06
2023-05-18T00:21:30.950Z,99843.78
2023-05-18T00:24:19.420Z,99843.00
2023-05-18T00:27:07.315Z,99843.38
2023-05-18T00:29:55.205Z,99838.22
2023-05-18T00:32:42.960Z,99821.50
2023-05-18T00:35:34.656Z,99835.47
2023-05-18T00:38:22.449Z,99816.38
2023-05-18T00:41:10.535Z,99846.91
2023-05-18T00:44:01.133Z,99846.00
2023-05-18T00:46:50.597Z,99848.81
2023-05-18T00:49:38.505Z,99839.25
2023-05-18T00:52:29.691Z,99855.50
2023-05-18T00:55:18.065Z,99837.59
2023-05-18T00:58:06.102Z,99830.00
2023-05-18T01:00:54.505Z,99844.31
2023-05-18T01:03:43.488Z,99838.69
2023-05-18T01:06:33.076Z,99835.13
2023-05-18T01:09:20.909Z,99842.72
2023-05-18T01:12:28.985Z,99847.50
2023-05-18T01:15:23.943Z,99847.41
2023-05-18T01:18:22.151Z,99797.53
2023-05-18T01:21:46.478Z,99855.25
2023-05-18T01:24:48.889Z,99865.94
2023-05-18T01:27:42.552Z,99844.84
2023-05-18T01:30:30.386Z,99858.00
2023-05-18T01:33:18.157Z,99844.03
2023-05-18T01:36:06.283Z,99869.13
2023-05-18T01:38:55.759Z,99861.16
2023-05-18T01:42:07.280Z,99848.75
2023-05-18T01:45:01.872Z,99881.66
2023-05-18T01:47:53.195Z,99860.16
2023-05-18T01:50:47.793Z,99887.63
2023-05-18T01:53:45.472Z,99862.91
2023-05-18T01:56:34.654Z,99891.25
2023-05-18T01:59:24.332Z,99895.19
2023-05-18T02:02:12.410Z,99893.66
2023-05-18T02:05:00.287Z,99886.28
2023-05-18T02:07:54.738Z,99894.28
2023-05-18T02:10:47.611Z,99909.03
2023-05-18T02:13:42.459Z,99880.31
2023-05-18T02:16:30.311Z,99909.75
2023-05-18T02:19:22.101Z,99901.44
2023-05-18T02:22:10.141Z,99905.44
2023-05-18T02:24:57.956Z,99906.19
2023-05-18T02:27:45.913Z,99890.22
2023-05-18T02:30:35.591Z,99912.91
2023-05-18T02:33:28.905Z,99917.28
2023-05-18T02:36:18.857Z,99921.66
2023-05-18T02:39:11.815Z,99918.09
2023-05-18T02:42:00.855Z,99930.84
2023-05-18T02:44:52.654Z,99927.66
2023-05-18T02:47:40.739Z,99931.53
2023-05-18T02:50:28.939Z,99940.69
2023-05-18T02:53:17.101Z,99937.47
2023-05-18T02:56:05.190Z,99946.22
2023-05-18T02:59:04.153Z,99948.22
2023-05-18T03:01:57.996Z,99954.56
2023-05-18T03:04:49.380Z,99962.16
2023-05-18T03:07:37.709Z,99969.19
2023-05-18T03:10:25.635Z,99968.31
2023-05-18T03:13:13.547Z,99968.88
2023-05-18T03:16:01.677Z,99972.94
2023-05-18T03:18:49.709Z,99975.00
2023-05-18T03:21:39.046Z,99983.34
2023-05-18T03:24:30.648Z,99991.34
2023-05-18T03:27:25.566Z,99988.69
2023-05-18T03:30:13.505Z,99963.94
2023-05-18T03:33:04.734Z,99987.53
2023-05-18T03:35:53.414Z,99995.00
2023-05-18T03:38:41.973Z,99994.19
2023-05-18T03:41:31.157Z,100004.66
2023-05-18T03:44:18.926Z,100002.16
2023-05-18T03:47:07.192Z,100010.91
2023-05-18T03:49:54.899Z,100010.41
2023-05-18T03:52:46.161Z,100011.34
2023-05-18T03:55:33.985Z,100019.75
2023-05-18T03:58:22.858Z,100022.16
2023-05-18T04:01:10.955Z,100018.66
2023-05-18T04:04:00.166Z,100022.25
2023-05-18T04:06:51.788Z,100015.91
2023-05-18T04:09:40.014Z,100023.84
2023-05-18T04:12:27.803Z,100027.09
2023-05-18T04:15:16.292Z,100039.66
2023-05-18T04:18:05.617Z,100046.09
2023-05-18T04:20:55.570Z,100040.47
2023-05-18T04:23:45.333Z,100026.13
2023-05-18T04:26:39.410Z,100049.72
2023-05-18T04:29:30.682Z,100049.28
2023-05-18T04:32:19.087Z,100050.56
2023-05-18T04:35:08.109Z,100051.59
2023-05-18T04:37:56.659Z,100068.75
2023-05-18T04:40:44.604Z,100041.28
2023-05-18T04:43:34.523Z,100044.63
2023-05-18T04:46:22.576Z,100056.91
2023-05-18T04:49:11.920Z,100038.75
2023-05-18T04:52:00.179Z,100083.97
2023-05-18T04:54:48.355Z,100060.16
2023-05-18T04:57:36.266Z,100085.16
2023-05-18T05:00:25.405Z,100093.47
2023-05-18T05:03:13.305Z,100085.97
2023-05-18T05:06:01.161Z,100081.53
2023-05-18T05:08:49.968Z,100094.63
2023-05-18T05:11:38.006Z,100088.41
2023-05-18T05:14:28.166Z,100090.56
2023-05-18T05:17:16.142Z,100082.47
2023-05-18T05:20:04.523Z,100107.34
2023-05-18T05:22:52.773Z,100077.84
2023-05-18T05:25:44.414Z,100094.50
2023-05-18T05:28:32.466Z,100109.28
2023-05-18T05:31:20.482Z,100114.13
2023-05-18T05:34:08.249Z,100114.50
2023-05-18T05:36:57.350Z,100120.88
2023-05-18T05:39:45.541Z,100114.91
2023-05-18T05:42:36.385Z,100106.16
2023-05-18T05:45:25.030Z,100118.13
2023-05-18T05:48:19.021Z,100138.03
2023-05-18T05:51:06.951Z,100132.94
2023-05-18T05:53:54.880Z,100125.16
2023-05-18T05:56:43.540Z,100128.41
2023-05-18T05:59:31.997Z,100136.66
2023-05-18T06:02:20.822Z,100117.16
2023-05-18T06:05:09.698Z,100127.34
2023-05-18T06:07:58.483Z,100125.81
2023-05-18T06:10:46.225Z,100118.66
2023-05-18T06:13:34.412Z,100104.38
2023-05-18T06:16:22.775Z,100119.88
2023-05-18T06:19:10.818Z,100112.94
2023-05-18T06:21:58.547Z,100125.31
2023-05-18T06:24:48.346Z,100121.28
2023-05-18T06:28:05.354Z,100122.47
2023-05-18T06:31:06.003Z,100137.19
2023-05-18T06:34:16.179Z,100125.19
2023-05-18T06:37:04.298Z,100132.91
2023-05-18T06:39:52.062Z,100114.56
2023-05-18T06:42:39.876Z,100123.03
2023-05-18T06:45:47.884Z,100141.13
2023-05-18T06:48:50.590Z,100127.59
2023-05-18T06:51:38.263Z,100145.09
2023-05-18T06:54:27.198Z,100150.72
2023-05-18T06:57:15.065Z,100143.81
2023-05-18T07:00:02.882Z,100129.00
2023-05-18T07:02:52.287Z,100152.91
2023-05-18T07:05:40.202Z,100162.47
2023-05-18T07:08:27.910Z,100176.53
2023-05-18T07:11:18.196Z,100173.28
2023-05-18T07:14:09.335Z,100173.78
2023-05-18T07:16:57.150Z,100155.91
2023-05-18T07:19:44.960Z,100167.44
2023-05-18T07:22:33.560Z,100141.19
2023-05-18T07:25:21.441Z,100165.50
2023-05-18T07:28:09.412Z,100156.31
2023-05-18T07:30:57.150Z,100133.63
2023-05-18T07:33:45.410Z,100153.97
2023-05-18T07:36:35.407Z,100155.16
2023-05-18T07:39:28.764Z,100163.50
2023-05-18T07:42:21.506Z,100153.94
2023-05-18T07:45:10.248Z,100165.09
2023-05-18T07:47:58.164Z,100155.09
2023-05-18T07:50:45.972Z,100173.72
2023-05-18T07:53:46.261Z,100148.69
2023-05-18T07:56:36.633Z,100171.31
2023-05-18T07:59:27.524Z,100167.28
2023-05-18T08:02:16.914Z,100165.03
2023-05-18T08:05:05.023Z,100172.97
2023-05-18T08:07:52.978Z,100183.75
2023-05-18T08:10:40.866Z,100182.84
2023-05-18T08:13:28.775Z,100167.72
2023-05-18T08:16:16.659Z,100179.25
2023-05-18T08:19:04.852Z,100182.00
2023-05-18T08:21:52.522Z,100184.41
2023-05-18T08:24:40.357Z,100195.09
2023-05-18T08:27:29.544Z,100182.78
2023-05-18T08:30:20.916Z,100169.97
2023-05-18T08:33:09.530Z,100193.03
2023-05-18T08:35:57.282Z,100187.78
2023-05-18T08:38:45.017Z,100181.03
2023-05-18T08:41:39.178Z,100180.47
2023-05-18T08:44:31.633Z,100195.19
2023-05-18T08:47:26.273Z,100188.94
2023-05-18T08:50:17.970Z,100170.75
2023-05-18T08:53:06.852Z,100208.16
2023-05-18T08:55:55.557Z,100184.56
2023-05-18T08:58:49.476Z,100206.41
2023-05-18T09:01:37.703Z,100190.00
2023-05-18T09:04:27.472Z,100185.09
2023-05-18T09:07:16.310Z,100193.41
2023-05-18T09:10:04.390Z,100190.91
2023-05-18T09:12:53.362Z,100217.88
2023-05-18T09:15:41.312Z,100222.59
2023-05-18T09:18:28.970Z,100219.38
2023-05-18T09:21:16.863Z,100196.81
2023-05-18T09:24:05.297Z,100231.53
2023-05-18T09:26:56.125Z,100231.91
2023-05-18T09:29:55.320Z,100228.97
2023-05-18T09:32:46.068Z,100233.00
2023-05-18T09:35:34.364Z,100231.22
2023-05-18T09:38:23.510Z,100239.78
2023-05-18T09:41:12.828Z,100221.72
2023-05-18T09:44:05.453Z,100240.13
2023-05-18T09:46:56.856Z,100241.09
2023-05-18T09:49:44.707Z,100236.59
2023-05-18T09:52:41.423Z,100247.91
2023-05-18T09:55:29.521Z,100237.91
2023-05-18T09:58:17.785Z,100253.38
2023-05-18T10:01:06.064Z,100258.19
2023-05-18T10:04:04.256Z,100270.94
2023-05-18T10:06:52.530Z,100270.53
2023-05-18T10:09:41.890Z,100256.38
2023-05-18T10:12:32.075Z,100277.19
2023-05-18T10:15:22.860Z,100276.41
2023-05-18T10:18:11.037Z,100252.00
2023-05-18T10:21:01.207Z,100242.16
2023-05-18T10:23:51.600Z,100239.69
2023-05-18T10:26:40.982Z,100234.47
2023-05-18T10:29:30.105Z,100234.06
2023-05-18T10:32:20.980Z,100226.78
2023-05-18T10:35:10.372Z,100242.81
2023-05-18T10:38:00.278Z,100247.13
2023-05-18T10:40:50.101Z,100228.59
2023-05-18T10:43:38.237Z,100259.25
2023-05-18T10:46:28.974Z,100262.19
2023-05-18T10:49:18.150Z,100278.88
2023-05-18T10:52:07.686Z,100282.31
2023-05-18T10:54:55.559Z,100253.38
2023-05-18T10:57:58.835Z,100286.31
2023-05-18T11:00:54.489Z,100282.59
2023-05-18T11:03:42.492Z,100289.22
2023-05-18T11:06:30.271Z,100296.00
2023-05-18T11:09:27.674Z,100292.19
2023-05-18T11:12:18.169Z,100289.78
2023-05-18T11:15:06.419Z,100288.38
2023-05-18T11:18:13.538Z,100288.63
2023-05-18T11:21:02.048Z,100300.91
2023-05-18T11:24:11.461Z,100302.06
2023-05-18T11:27:17.792Z,100301.38
2023-05-18T11:30:25.859Z,100319.84
2023-05-18T11:33:21.988Z,100302.28
2023-05-18T11:36:13.883Z,100322.19
2023-05-18T11:39:07.355Z,100295.81
2023-05-18T11:42:13.336Z,100273.50
2023-05-18T11:45:13.674Z,100277.59
2023-05-18T11:48:03.660Z,100289.50
2023-05-18T11:50:58.102Z,100279.03
2023-05-18T11:53:45.813Z,100267.16
2023-05-18T11:56:34.232Z,100183.59
2023-05-18T11:59:37.420Z,100215.91
2023-05-18T12:02:27.510Z,100232.19
2023-05-18T12:05:15.537Z,100225.13
2023-05-18T12:08:04.436Z,100235.06
2023-05-18T12:10:52.806Z,100231.91
2023-05-18T12:13:43.654Z,100265.38
2023-05-18T12:16:31.355Z,100268.56
2023-05-18T12:19:20.053Z,100276.56
2023-05-18T12:22:09.550Z,100258.97
2023-05-18T12:24:57.217Z,100262.78
2023-05-18T12:27:46.353Z,100277.69
2023-05-18T12:30:37.377Z,100282.00
2023-05-18T12:33:25.176Z,100263.28
2023-05-18T12:36:15.392Z,100276.47
2023-05-18T12:39:05.216Z,100283.19
2023-05-18T12:41:53.335Z,100283.47
2023-05-18T12:44:44.075Z,100282.25
2023-05-18T12:47:34.236Z,100279.25
2023-05-18T12:50:23.815Z,100277.50
2023-05-18T12:53:12.259Z,100267.84
2023-05-18T12:56:01.814Z,100282.94
2023-05-18T12:58:59.940Z,100273.69
2023-05-18T13:01:47.784Z,100263.53
2023-05-18T13:04:37.858Z,100239.91
2023-05-18T13:07:27.005Z,100262.25
2023-05-18T13:10:17.752Z,100272.88
2023-05-18T13:13:05.618Z,100256.00
2023-05-18T13:15:53.912Z,100298.28
2023-05-18T13:18:47.177Z,100286.19
2023-05-18T13:21:36.065Z,100293.16
2023-05-18T13:24:23.855Z,100283.28
2023-05-18T13:27:11.853Z,100298.22
2023-05-18T13:29:59.985Z,100307.53
2023-05-18T13:32:47.992Z,100249.13
2023-05-18T13:35:42.330Z,100296.22
2023-05-18T13:38:35.753Z,100300.63
2023-05-18T13:41:23.539Z,100291.78
2023-05-18T13:44:16.084Z,100283.56
2023-05-18T13:47:03.874Z,100272.84
2023-05-18T13:49:51.715Z,100261.88
2023-05-18T13:52:39.450Z,100249.28
2023-05-18T13:55:27.255Z,100262.38
2023-05-18T13:58:14.865Z,100253.16
2023-05-18T14:01:04.403Z,100267.25
2023-05-18T14:03:52.280Z,100251.34
2023-05-18T14:06:40.963Z,100280.50
2023-05-18T14:09:28.705Z,100243.22
2023-05-18T14:12:16.495Z,100281.78
2023-05-18T14:15:05.664Z,100286.28
2023-05-18T14:17:53.568Z,100281.41
2023-05-18T14:20:41.285Z,100275.28
2023-05-18T14:23:29.114Z,100282.47
2023-05-18T14:26:16.909Z,100258.69
2023-05-18T14:29:04.612Z,100279.47
2023-05-18T14:31:52.328Z,100269.94
2023-05-18T14:34:40.196Z,100260.44
2023-05-18T14:37:28.159Z,100275.81
2023-05-18T14:40:15.952Z,100265.84
2023-05-18T14:43:03.665Z,100260.97
2023-05-18T14:46:04.154Z,100231.88
2023-05-18T14:48:56.199Z,100254.13
2023-05-18T14:51:44.050Z,100273.72
2023-05-18T14:54:31.692Z,100257.09
2023-05-18T14:57:19.564Z,100266.28
2023-05-18T15:00:07.929Z,100278.25
2023-05-18T15:02:56.890Z,100264.34
2023-05-18T15:05:45.876Z,100267.94
2023-05-18T15:08:33.731Z,100270.41
2023-05-18T15:11:22.920Z,100235.69
2023-05-18T15:14:10.636Z,100227.72
2023-05-18T15:16:58.888Z,100260.47
2023-05-18T15:19:47.398Z,100236.25
2023-05-18T15:22:36.085Z,100254.91
2023-05-18T15:25:23.896Z,100257.78
2023-05-18T15:28:11.630Z,100246.66
2023-05-18T15:30:59.501Z,100230.34
2023-05-18T15:33:47.488Z,100243.53
2023-05-18T15:36:36.616Z,100235.16
2023-05-18T15:39:24.362Z,100256.69
2023-05-18T15:42:12.353Z,100251.88
2023-05-18T15:45:00.137Z,100252.28
2023-05-18T15:47:47.886Z,100253.88
2023-05-18T15:50:35.573Z,100244.72
2023-05-18T15:53:23.482Z,100252.28
2023-05-18T15:56:11.246Z,100251.50
2023-05-18T15:58:59.021Z,100239.94
2023-05-18T16:01:46.806Z,100258.28
2023-05-18T16:04:21.001Z,100243.94
2023-05-18T16:07:08.847Z,100235.19
2023-05-18T16:09:56.573Z,100263.91
2023-05-18T16:12:44.294Z,100265.09
2023-05-18T16:15:36.199Z,100277.88
2023-05-18T16:18:23.914Z,100267.94
2023-05-18T16:21:11.657Z,100258.78
2023-05-18T16:23:59.602Z,100281.88
2023-05-18T16:26:47.357Z,100273.94
2023-05-18T16:29:35.169Z,100282.72
2023-05-18T16:32:23.018Z,100276.34
2023-05-18T16:35:13.580Z,100275.94
2023-05-18T16:38:01.477Z,100273.53
2023-05-18T16:40:49.218Z,100271.97
2023-05-18T16:43:37.111Z,100273.94
2023-05-18T16:46:25.944Z,100289.09
2023-05-18T16:49:15.106Z,100285.50
2023-05-18T16:52:03.858Z,100249.16
2023-05-18T16:54:51.760Z,100289.84
2023-05-18T16:57:39.900Z,100270.31
2023-05-18T17:00:28.128Z,100247.56
2023-05-18T17:03:19.548Z,100252.34
2023-05-18T17:06:11.391Z,100213.59
2023-05-18T17:08:59.832Z,100265.44
2023-05-18T17:11:48.656Z,100291.34
2023-05-18T17:14:36.555Z,100307.31
2023-05-18T17:17:24.975Z,100288.16
2023-05-18T17:20:16.163Z,100315.25
2023-05-18T17:23:05.077Z,100306.91
2023-05-18T17:26:01.010Z,100283.31
2023-05-18T17:28:53.992Z,100324.78
2023-05-18T17:31:41.927Z,100301.63
2023-05-18T17:34:31.759Z,100298.78
2023-05-18T17:37:20.840Z,100330.31
2023-05-18T17:40:10.097Z,100322.28
2023-05-18T17:42:59.595Z,100338.22
2023-05-18T17:45:53.119Z,100361.22
2023-05-18T17:48:55.591Z,100369.59
2023-05-18T17:51:46.724Z,100362.38
2023-05-18T17:54:42.350Z,100395.81
2023-05-18T17:57:31.722Z,100391.31
2023-05-18T18:00:21.269Z,100394.97
2023-05-18T18:03:13.548Z,100369.78
2023-05-18T18:06:01.852Z,100382.25
2023-05-18T18:08:57.944Z,100375.06
2023-05-18T18:11:45.764Z,100375.41
2023-05-18T18:14:33.674Z,100374.94
2023-05-18T18:17:21.472Z,100372.88
2023-05-18T18:20:10.058Z,100362.41
2023-05-18T18:23:01.017Z,100376.41
2023-05-18T18:25:49.050Z,100382.69
2023-05-18T18:28:37.327Z,100373.53
2023-05-18T18:31:25.394Z,100380.78
2023-05-18T18:34:16.516Z,100359.78
2023-05-18T18:37:04.866Z,100370.91
2023-05-18T18:39:52.592Z,100394.03
2023-05-18T18:42:40.626Z,100386.41
2023-05-18T18:45:30.264Z,100339.59
2023-05-18T18:48:21.424Z,100374.88
2023-05-18T18:51:09.055Z,100370.72
2023-05-18T18:53:56.911Z,100354.72
2023-05-18T18:56:45.013Z,100355.06
2023-05-18T18:59:35.116Z,100392.75
2023-05-18T19:02:24.131Z,100383.22
2023-05-18T19:05:12.264Z,100379.16
2023-05-18T19:08:03.254Z,100402.84
2023-05-18T19:10:53.253Z,100404.28
2023-05-18T19:13:40.957Z,100403.44
2023-05-18T19:16:28.901Z,100408.72
2023-05-18T19:19:19.489Z,100410.78
2023-05-18T19:22:08.609Z,100419.50
2023-05-18T19:24:56.765Z,100418.41
2023-05-18T19:27:44.995Z,100416.91
2023-05-18T19:30:32.941Z,100418.16
2023-05-18T19:33:20.718Z,100399.56
2023-05-18T19:36:11.780Z,100414.84
2023-05-18T19:38:59.551Z,100424.13
2023-05-18T19:41:47.481Z,100490.78
2023-05-18T19:44:35.344Z,100475.81
2023-05-18T19:47:23.160Z,100443.28
2023-05-18T19:50:11.035Z,100450.38
2023-05-18T19:52:58.730Z,100468.53
2023-05-18T19:55:47.539Z,100469.31
2023-05-18T19:58:36.522Z,100478.16
2023-05-18T20:01:25.014Z,100477.25
2023-05-18T20:04:15.312Z,100461.22
2023-05-18T20:07:03.171Z,100476.75
2023-05-18T20:09:53.259Z,100465.72
2023-05-18T20:12:44.063Z,100468.25
2023-05-18T20:15:35.449Z,100456.44
2023-05-18T20:18:24.091Z,100456.09
2023-05-18T20:21:11.844Z,100476.16
2023-05-18T20:23:59.781Z,100473.31
2023-05-18T20:26:47.544Z,100464.66
2023-05-18T20:29:35.406Z,100461.50
2023-05-18T20:32:23.463Z,100460.13
2023-05-18T20:35:12.932Z,100450.97
2023-05-18T20:38:15.043Z,100450.00
2023-05-18T20:41:04.093Z,100433.97
2023-05-18T20:43:51.940Z,100476.25
2023-05-18T20:46:42.900Z,100464.41
2023-05-18T20:49:30.821Z,100468.44
2023-05-18T20:52:21.153Z,100476.81
2023-05-18T20:55:09.627Z,100479.78
2023-05-18T20:57:57.472Z,100477.22
2023-05-18T21:00:46.798Z,100480.63
2023-05-18T21:03:34.909Z,100462.16
2023-05-18T21:06:23.335Z,100415.56
2023-05-18T21:09:11.016Z,100476.31
2023-05-18T21:11:58.782Z,100475.34
2023-05-18T21:14:46.677Z,100444.75
2023-05-18T21:17:34.531Z,100464.09
2023-05-18T21:20:22.410Z,100468.31
2023-05-18T21:23:10.135Z,100454.97
2023-05-18T21:26:00.394Z,100467.13
2023-05-18T21:28:48.202Z,100423.97
2023-05-18T21:31:36.116Z,100473.09
2023-05-18T21:34:43.510Z,100466.31
2023-05-18T21:37:47.973Z,100460.53
2023-05-18T21:40:38.810Z,100456.69
2023-05-18T21:43:26.573Z,100418.88
2023-05-18T21:46:14.309Z,100445.03
2023-05-18T21:49:05.765Z,100469.84
2023-05-18T21:51:53.549Z,100451.78
2023-05-18T21:54:41.297Z,100461.31
2023-05-18T21:57:29.008Z,100461.66
2023-05-18T22:00:18.370Z,100450.84
2023-05-18T22:03:06.099Z,100458.38
2023-05-18T22:05:53.802Z,100463.06
2023-05-18T22:08:41.867Z,100472.69
2023-05-18T22:11:29.819Z,100479.41
2023-05-18T22:14:18.188Z,100470.09
2023-05-18T22:17:06.087Z,100478.03
2023-05-18T22:19:54.115Z,100453.53
2023-05-18T22:22:42.011Z,100477.69
2023-05-18T22:25:30.810Z,100465.88
2023-05-18T22:28:21.867Z,100422.69
2023-05-18T22:31:11.886Z,100440.56
2023-05-18T22:33:59.702Z,100445.31
2023-05-18T22:36:47.470Z,100453.28
2023-05-18T22:39:35.189Z,100442.91
2023-05-18T22:42:22.930Z,100448.75
2023-05-18T22:45:11.815Z,100458.44
2023-05-18T22:48:00.013Z,100417.41
2023-05-18T22:50:48.624Z,100439.09
2023-05-18T22:53:36.342Z,100438.03
2023-05-18T22:56:24.192Z,100447.38
2023-05-18T22:59:12.202Z,100448.16
2023-05-18T23:01:59.873Z,100414.47
2023-05-18T23:04:47.576Z,100441.53
2023-05-18T23:07:38.689Z,100446.25
2023-05-18T23:10:28.701Z,100420.44
2023-05-18T23:13:16.554Z,100443.78
2023-05-18T23:16:04.412Z,100456.41
2023-05-18T23:18:53.872Z,100451.31
2023-05-18T23:21:41.655Z,100440.34
2023-05-18T23:24:29.579Z,100461.66
2023-05-18T23:27:17.731Z,100410.44
2023-05-18T23:30:06.355Z,100465.72
2023-05-18T23:32:54.885Z,100447.19
2023-05-18T23:35:46.073Z,100459.78
2023-05-18T23:38:37.928Z,100429.19
2023-05-18T23:41:30.822Z,100449.16
2023-05-18T23:44:19.003Z,100451.06
2023-05-18T23:47:07.122Z,100443.63
2023-05-18T23:49:55.173Z,100439.19
2023-05-18T23:52:46.282Z,100450.16
2023-05-18T23:55:36.228Z,100448.81
2023-05-18T23:58:27.004Z,100451.06
